Airfield :
LOGIN :

Register | Disclaimer

   EN    FR    IT 

 










Legend :    VFR   Marginal VFR   IFR   Intensive IFR   Very Intensive IFR
Visi :
Ceiling :
>= 8 km
>= 3000ft
5 to 8 km
1000 to 3000 ft
1500m to 5 km
500 to 1000 ft
800 to 1500m
200 to 500 ft
< 800m
< 200 ft
Symbols :   Thunderstorms  Fog  Heavy snow  Heavy precipitations  Wind > 20 kt
SIGMETs :     Misc.  Thunderstorms  Icing  Turbulence  Mountain Waves  Volcanic Ashes







- Airport Elevation : 160 ft
- IATA code : FMO


EDDG - Münster Osnabrück Int.

CURRENT METAR :
  • 221220Z 33009KT 290V010 9999 SCT040 15/05 Q1031 NOSIG

EXPIRED METARs :
  • 221150Z 35012KT 320V020 9999 BKN040 14/05 Q1031 NOSIG
  • 221120Z 36012KT 330V030 9999 BKN042 14/07 Q1031 NOSIG
  • 221050Z 35010KT 320V030 9999 BKN028 14/07 Q1031 NOSIG
  • 221020Z 01012KT 330V040 9999 SCT028 14/07 Q1031 NOSIG
  • 220950Z 36008KT 310V030 9999 FEW017 14/09 Q1031 NOSIG

TAF TAF EDDG
Valid from the 22 at 12:00 until the 23 at 12:00 UTC


221100Z 2212/2312 35008KT 9999 SCT030
BECMG 2218/2221 25003KT
BECMG 2300/2302 24010KT
BECMG 2306/2308 26015G25KT
TEMPO 2309/2312 BKN010
No reported NOTAMs for that airfield.



MET'MAP, your aeronautical weather chart ! - Copyright ORBIFLY December 2007 - Disclaimer

ORBIFLY MET'MAP TEAM :

Programming & Development : Alexandra Zaïnal
Concept & Development : Baudouin d'Aumeries
Co-Development & Prog : Marc-Olivier Méhu
Technical & hardware support : Manuel Goepfert

Contact : metmap@orbifly.com




SOURCES & CREDITS :

   NOAA